sensor_id;sensor_type;location;lat;lon;timestamp;temperature;humidity
68719;DHT22;55696;52.138;5.444;2022-12-29T00:02:16;15.40;72.20
68719;DHT22;55696;52.138;5.444;2022-12-29T00:04:43;14.50;72.20
68719;DHT22;55696;52.138;5.444;2022-12-29T00:07:10;14.40;71.60
68719;DHT22;55696;52.138;5.444;2022-12-29T00:09:37;14.40;71.30
68719;DHT22;55696;52.138;5.444;2022-12-29T00:12:04;14.30;71.00
68719;DHT22;55696;52.138;5.444;2022-12-29T00:14:31;14.60;71.60
68719;DHT22;55696;52.138;5.444;2022-12-29T00:17:17;14.50;70.70
68719;DHT22;55696;52.138;5.444;2022-12-29T00:19:44;15.00;71.10
68719;DHT22;55696;52.138;5.444;2022-12-29T00:22:29;14.60;70.50
68719;DHT22;55696;52.138;5.444;2022-12-29T00:25:14;14.40;70.30
68719;DHT22;55696;52.138;5.444;2022-12-29T00:28:00;14.70;70.70
68719;DHT22;55696;52.138;5.444;2022-12-29T00:30:45;14.60;70.10
68719;DHT22;55696;52.138;5.444;2022-12-29T00:33:32;15.20;70.30
68719;DHT22;55696;52.138;5.444;2022-12-29T00:36:23;14.50;71.30
68719;DHT22;55696;52.138;5.444;2022-12-29T00:39:03;14.70;71.20
68719;DHT22;55696;52.138;5.444;2022-12-29T00:41:50;14.70;71.60
68719;DHT22;55696;52.138;5.444;2022-12-29T00:44:36;15.50;70.20
68719;DHT22;55696;52.138;5.444;2022-12-29T00:47:02;14.60;70.20
68719;DHT22;55696;52.138;5.444;2022-12-29T00:49:31;14.60;70.20
68719;DHT22;55696;52.138;5.444;2022-12-29T00:54:33;14.60;71.70
68719;DHT22;55696;52.138;5.444;2022-12-29T00:57:01;14.80;71.20
68719;DHT22;55696;52.138;5.444;2022-12-29T00:59:28;14.70;70.50
68719;DHT22;55696;52.138;5.444;2022-12-29T01:01:56;14.50;69.80
68719;DHT22;55696;52.138;5.444;2022-12-29T01:04:25;14.70;70.90
68719;DHT22;55696;52.138;5.444;2022-12-29T01:06:52;15.20;71.00
68719;DHT22;55696;52.138;5.444;2022-12-29T01:09:19;15.00;70.40
68719;DHT22;55696;52.138;5.444;2022-12-29T01:12:05;14.60;69.80
68719;DHT22;55696;52.138;5.444;2022-12-29T01:14:34;14.70;70.50
68719;DHT22;55696;52.138;5.444;2022-12-29T01:17:03;14.60;70.30
68719;DHT22;55696;52.138;5.444;2022-12-29T01:19:30;14.60;70.50
68719;DHT22;55696;52.138;5.444;2022-12-29T01:21:57;14.50;70.00
68719;DHT22;55696;52.138;5.444;2022-12-29T01:24:23;14.50;70.30
68719;DHT22;55696;52.138;5.444;2022-12-29T01:26:52;14.50;70.30
68719;DHT22;55696;52.138;5.444;2022-12-29T01:29:20;14.40;70.50
68719;DHT22;55696;52.138;5.444;2022-12-29T01:31:47;14.60;71.00
68719;DHT22;55696;52.138;5.444;2022-12-29T01:34:16;14.40;71.10
68719;DHT22;55696;52.138;5.444;2022-12-29T01:36:43;14.50;71.50
68719;DHT22;55696;52.138;5.444;2022-12-29T01:39:12;14.40;71.80
68719;DHT22;55696;52.138;5.444;2022-12-29T01:41:40;14.20;72.20
68719;DHT22;55696;52.138;5.444;2022-12-29T01:44:47;14.20;72.60
68719;DHT22;55696;52.138;5.444;2022-12-29T01:47:37;14.20;74.60
68719;DHT22;55696;52.138;5.444;2022-12-29T01:50:09;14.10;76.10
68719;DHT22;55696;52.138;5.444;2022-12-29T01:52:42;14.00;74.80
68719;DHT22;55696;52.138;5.444;2022-12-29T01:55:11;14.10;74.90
68719;DHT22;55696;52.138;5.444;2022-12-29T01:57:42;14.10;74.30
68719;DHT22;55696;52.138;5.444;2022-12-29T02:00:12;14.00;74.90
68719;DHT22;55696;52.138;5.444;2022-12-29T02:02:45;14.10;74.50
68719;DHT22;55696;52.138;5.444;2022-12-29T02:05:32;14.80;75.60
68719;DHT22;55696;52.138;5.444;2022-12-29T02:08:01;14.00;75.80
68719;DHT22;55696;52.138;5.444;2022-12-29T02:10:30;14.80;74.90
68719;DHT22;55696;52.138;5.444;2022-12-29T02:12:59;14.20;75.00
68719;DHT22;55696;52.138;5.444;2022-12-29T02:18:45;14.20;75.30
68719;DHT22;55696;52.138;5.444;2022-12-29T02:24:46;14.20;75.60
68719;DHT22;55696;52.138;5.444;2022-12-29T02:30:11;14.20;75.60
68719;DHT22;55696;52.138;5.444;2022-12-29T02:35:50;14.30;74.80
68719;DHT22;55696;52.138;5.444;2022-12-29T02:41:37;14.30;75.10
68719;DHT22;55696;52.138;5.444;2022-12-29T02:44:39;14.10;75.00
68719;DHT22;55696;52.138;5.444;2022-12-29T02:47:15;14.10;74.60
68719;DHT22;55696;52.138;5.444;2022-12-29T02:49:51;14.10;74.60
68719;DHT22;55696;52.138;5.444;2022-12-29T02:52:55;14.10;74.40
68719;DHT22;55696;52.138;5.444;2022-12-29T02:55:24;14.10;74.80
68719;DHT22;55696;52.138;5.444;2022-12-29T03:00:36;14.10;74.30
68719;DHT22;55696;52.138;5.444;2022-12-29T03:11:59;14.20;73.70
68719;DHT22;55696;52.138;5.444;2022-12-29T03:14:57;14.20;73.20
68719;DHT22;55696;52.138;5.444;2022-12-29T03:17:51;14.20;74.10
68719;DHT22;55696;52.138;5.444;2022-12-29T03:20:25;14.20;73.20
68719;DHT22;55696;52.138;5.444;2022-12-29T03:22:58;14.40;73.80
68719;DHT22;55696;52.138;5.444;2022-12-29T03:25:36;14.10;73.70
68719;DHT22;55696;52.138;5.444;2022-12-29T03:28:17;14.80;74.30
68719;DHT22;55696;52.138;5.444;2022-12-29T03:30:46;13.90;73.60
68719;DHT22;55696;52.138;5.444;2022-12-29T03:33:22;14.10;72.20
68719;DHT22;55696;52.138;5.444;2022-12-29T03:35:55;14.00;73.50
68719;DHT22;55696;52.138;5.444;2022-12-29T03:38:51;14.00;73.10
68719;DHT22;55696;52.138;5.444;2022-12-29T03:41:20;14.00;73.40
68719;DHT22;55696;52.138;5.444;2022-12-29T03:43:50;13.90;73.30
68719;DHT22;55696;52.138;5.444;2022-12-29T03:46:17;13.90;71.80
68719;DHT22;55696;52.138;5.444;2022-12-29T03:48:44;13.90;71.80
68719;DHT22;55696;52.138;5.444;2022-12-29T03:51:10;13.90;71.70
68719;DHT22;55696;52.138;5.444;2022-12-29T03:53:38;13.90;71.70
68719;DHT22;55696;52.138;5.444;2022-12-29T03:56:05;13.90;71.60
68719;DHT22;55696;52.138;5.444;2022-12-29T03:58:32;14.00;71.70
68719;DHT22;55696;52.138;5.444;2022-12-29T04:01:05;13.90;71.40
68719;DHT22;55696;52.138;5.444;2022-12-29T04:03:35;13.90;71.50
68719;DHT22;55696;52.138;5.444;2022-12-29T04:06:03;13.80;71.40
68719;DHT22;55696;52.138;5.444;2022-12-29T04:08:47;14.00;71.40
68719;DHT22;55696;52.138;5.444;2022-12-29T04:11:14;13.70;71.30
68719;DHT22;55696;52.138;5.444;2022-12-29T04:13:41;13.90;71.50
68719;DHT22;55696;52.138;5.444;2022-12-29T04:16:13;13.90;71.40
68719;DHT22;55696;52.138;5.444;2022-12-29T04:18:41;13.70;71.30
68719;DHT22;55696;52.138;5.444;2022-12-29T04:21:07;13.80;72.20
68719;DHT22;55696;52.138;5.444;2022-12-29T04:23:38;13.90;71.20
68719;DHT22;55696;52.138;5.444;2022-12-29T04:26:07;13.90;71.80
68719;DHT22;55696;52.138;5.444;2022-12-29T04:28:46;13.80;71.50
68719;DHT22;55696;52.138;5.444;2022-12-29T04:31:48;13.80;70.90
68719;DHT22;55696;52.138;5.444;2022-12-29T04:34:17;13.90;70.70
68719;DHT22;55696;52.138;5.444;2022-12-29T04:36:45;13.80;70.50
68719;DHT22;55696;52.138;5.444;2022-12-29T04:39:12;13.80;70.00
68719;DHT22;55696;52.138;5.444;2022-12-29T04:41:40;13.90;70.00
68719;DHT22;55696;52.138;5.444;2022-12-29T04:44:11;13.80;70.20
68719;DHT22;55696;52.138;5.444;2022-12-29T04:46:54;13.90;69.60
68719;DHT22;55696;52.138;5.444;2022-12-29T04:49:50;13.80;69.00
68719;DHT22;55696;52.138;5.444;2022-12-29T04:52:35;13.80;69.00
68719;DHT22;55696;52.138;5.444;2022-12-29T04:55:03;13.80;69.00
68719;DHT22;55696;52.138;5.444;2022-12-29T04:57:30;13.90;69.50
68719;DHT22;55696;52.138;5.444;2022-12-29T04:59:59;13.90;68.90
68719;DHT22;55696;52.138;5.444;2022-12-29T05:02:26;13.80;68.50
68719;DHT22;55696;52.138;5.444;2022-12-29T05:04:55;13.80;68.40
68719;DHT22;55696;52.138;5.444;2022-12-29T05:07:22;14.60;68.80
68719;DHT22;55696;52.138;5.444;2022-12-29T05:09:50;13.90;68.20
68719;DHT22;55696;52.138;5.444;2022-12-29T05:12:16;13.80;68.00
68719;DHT22;55696;52.138;5.444;2022-12-29T05:14:52;14.00;67.90
68719;DHT22;55696;52.138;5.444;2022-12-29T05:17:19;13.90;67.90
68719;DHT22;55696;52.138;5.444;2022-12-29T05:19:46;13.90;67.90
68719;DHT22;55696;52.138;5.444;2022-12-29T05:22:13;13.90;67.80
68719;DHT22;55696;52.138;5.444;2022-12-29T05:24:41;13.80;67.60
68719;DHT22;55696;52.138;5.444;2022-12-29T05:27:09;13.80;67.40
68719;DHT22;55696;52.138;5.444;2022-12-29T05:29:47;13.90;67.30
68719;DHT22;55696;52.138;5.444;2022-12-29T05:32:14;13.90;67.30
68719;DHT22;55696;52.138;5.444;2022-12-29T05:34:42;13.80;67.50
68719;DHT22;55696;52.138;5.444;2022-12-29T05:37:09;14.60;67.80
68719;DHT22;55696;52.138;5.444;2022-12-29T05:39:38;13.80;67.10
68719;DHT22;55696;52.138;5.444;2022-12-29T05:42:05;13.70;67.10
68719;DHT22;55696;52.138;5.444;2022-12-29T05:45:02;13.70;67.10
68719;DHT22;55696;52.138;5.444;2022-12-29T05:47:52;13.90;67.40
68719;DHT22;55696;52.138;5.444;2022-12-29T05:50:31;13.80;66.90
68719;DHT22;55696;52.138;5.444;2022-12-29T05:53:14;13.80;66.80
68719;DHT22;55696;52.138;5.444;2022-12-29T05:55:43;13.80;67.00
68719;DHT22;55696;52.138;5.444;2022-12-29T05:58:15;13.80;67.50
68719;DHT22;55696;52.138;5.444;2022-12-29T06:00:43;13.70;67.90
68719;DHT22;55696;52.138;5.444;2022-12-29T06:03:10;13.70;67.30
68719;DHT22;55696;52.138;5.444;2022-12-29T06:05:38;13.80;67.30
68719;DHT22;55696;52.138;5.444;2022-12-29T06:08:04;14.00;66.50
68719;DHT22;55696;52.138;5.444;2022-12-29T06:10:32;13.80;66.40
68719;DHT22;55696;52.138;5.444;2022-12-29T06:13:03;13.80;66.40
68719;DHT22;55696;52.138;5.444;2022-12-29T06:15:35;14.00;66.20
68719;DHT22;55696;52.138;5.444;2022-12-29T06:18:04;13.90;66.70
68719;DHT22;55696;52.138;5.444;2022-12-29T06:20:31;13.80;67.60
68719;DHT22;55696;52.138;5.444;2022-12-29T06:22:58;13.70;66.80
68719;DHT22;55696;52.138;5.444;2022-12-29T06:25:25;14.80;67.50
68719;DHT22;55696;52.138;5.444;2022-12-29T06:27:51;13.60;67.10
68719;DHT22;55696;52.138;5.444;2022-12-29T06:30:19;13.50;67.30
68719;DHT22;55696;52.138;5.444;2022-12-29T06:32:46;13.50;67.20
68719;DHT22;55696;52.138;5.444;2022-12-29T06:35:13;13.60;67.40
68719;DHT22;55696;52.138;5.444;2022-12-29T06:37:49;13.50;67.60
68719;DHT22;55696;52.138;5.444;2022-12-29T06:40:16;13.50;67.60
68719;DHT22;55696;52.138;5.444;2022-12-29T06:43:05;13.30;68.00
68719;DHT22;55696;52.138;5.444;2022-12-29T06:45:53;13.40;68.00
68719;DHT22;55696;52.138;5.444;2022-12-29T06:48:20;13.20;68.10
68719;DHT22;55696;52.138;5.444;2022-12-29T06:50:47;13.30;68.10
68719;DHT22;55696;52.138;5.444;2022-12-29T06:53:14;13.30;68.20
68719;DHT22;55696;52.138;5.444;2022-12-29T06:55:42;13.30;68.00
68719;DHT22;55696;52.138;5.444;2022-12-29T06:58:08;13.30;69.00
68719;DHT22;55696;52.138;5.444;2022-12-29T07:00:35;13.40;68.00
68719;DHT22;55696;52.138;5.444;2022-12-29T07:03:02;13.30;67.70
68719;DHT22;55696;52.138;5.444;2022-12-29T07:05:29;13.40;67.40
68719;DHT22;55696;52.138;5.444;2022-12-29T07:07:59;13.40;67.00
68719;DHT22;55696;52.138;5.444;2022-12-29T07:10:26;13.30;66.70
68719;DHT22;55696;52.138;5.444;2022-12-29T07:12:53;13.40;65.90
68719;DHT22;55696;52.138;5.444;2022-12-29T07:15:20;13.90;66.20
68719;DHT22;55696;52.138;5.444;2022-12-29T07:17:47;13.10;66.30
68719;DHT22;55696;52.138;5.444;2022-12-29T07:20:16;13.30;67.00
68719;DHT22;55696;52.138;5.444;2022-12-29T07:22:49;13.10;67.40
68719;DHT22;55696;52.138;5.444;2022-12-29T07:25:15;13.00;67.80
68719;DHT22;55696;52.138;5.444;2022-12-29T07:27:43;12.90;68.50
68719;DHT22;55696;52.138;5.444;2022-12-29T07:30:10;12.80;68.90
68719;DHT22;55696;52.138;5.444;2022-12-29T07:32:37;12.80;69.40
68719;DHT22;55696;52.138;5.444;2022-12-29T07:35:04;12.70;69.30
68719;DHT22;55696;52.138;5.444;2022-12-29T07:37:31;12.70;69.70
68719;DHT22;55696;52.138;5.444;2022-12-29T07:39:58;12.50;69.60
68719;DHT22;55696;52.138;5.444;2022-12-29T07:42:25;12.60;70.80
68719;DHT22;55696;52.138;5.444;2022-12-29T07:44:52;12.60;70.00
68719;DHT22;55696;52.138;5.444;2022-12-29T07:47:26;12.60;70.30
68719;DHT22;55696;52.138;5.444;2022-12-29T07:49:52;12.60;70.60
68719;DHT22;55696;52.138;5.444;2022-12-29T07:52:19;12.60;70.10
68719;DHT22;55696;52.138;5.444;2022-12-29T07:54:46;12.70;70.20
68719;DHT22;55696;52.138;5.444;2022-12-29T07:57:13;12.70;69.90
68719;DHT22;55696;52.138;5.444;2022-12-29T07:59:40;12.80;70.10
68719;DHT22;55696;52.138;5.444;2022-12-29T08:02:10;13.60;70.30
68719;DHT22;55696;52.138;5.444;2022-12-29T08:04:37;12.90;71.40
68719;DHT22;55696;52.138;5.444;2022-12-29T08:07:04;13.60;69.90
68719;DHT22;55696;52.138;5.444;2022-12-29T08:09:31;12.80;69.60
68719;DHT22;55696;52.138;5.444;2022-12-29T08:11:58;12.90;69.50
68719;DHT22;55696;52.138;5.444;2022-12-29T08:14:24;12.90;69.40
68719;DHT22;55696;52.138;5.444;2022-12-29T08:16:51;13.00;69.20
68719;DHT22;55696;52.138;5.444;2022-12-29T08:19:18;13.90;69.60
68719;DHT22;55696;52.138;5.444;2022-12-29T08:21:44;13.10;68.80
68719;DHT22;55696;52.138;5.444;2022-12-29T08:24:11;13.20;68.70
68719;DHT22;55696;52.138;5.444;2022-12-29T08:26:38;13.10;68.30
68719;DHT22;55696;52.138;5.444;2022-12-29T08:29:05;13.20;68.10
68719;DHT22;55696;52.138;5.444;2022-12-29T08:31:32;13.20;68.00
68719;DHT22;55696;52.138;5.444;2022-12-29T08:33:59;13.10;67.50
68719;DHT22;55696;52.138;5.444;2022-12-29T08:36:26;13.20;68.10
68719;DHT22;55696;52.138;5.444;2022-12-29T08:38:53;13.20;67.00
68719;DHT22;55696;52.138;5.444;2022-12-29T08:41:20;13.40;66.60
68719;DHT22;55696;52.138;5.444;2022-12-29T08:43:47;13.30;66.40
68719;DHT22;55696;52.138;5.444;2022-12-29T08:46:14;13.40;66.40
68719;DHT22;55696;52.138;5.444;2022-12-29T08:48:41;13.40;66.60
68719;DHT22;55696;52.138;5.444;2022-12-29T08:51:08;13.40;65.70
68719;DHT22;55696;52.138;5.444;2022-12-29T08:53:35;13.50;65.60
68719;DHT22;55696;52.138;5.444;2022-12-29T08:56:02;13.40;65.30
68719;DHT22;55696;52.138;5.444;2022-12-29T08:58:41;13.50;65.60
68719;DHT22;55696;52.138;5.444;2022-12-29T09:01:09;13.40;65.40
68719;DHT22;55696;52.138;5.444;2022-12-29T09:03:42;13.30;66.80
68719;DHT22;55696;52.138;5.444;2022-12-29T09:06:29;13.40;65.90
68719;DHT22;55696;52.138;5.444;2022-12-29T09:09:02;13.90;66.40
68719;DHT22;55696;52.138;5.444;2022-12-29T09:11:29;13.50;66.50
68719;DHT22;55696;52.138;5.444;2022-12-29T09:13:56;13.60;66.20
68719;DHT22;55696;52.138;5.444;2022-12-29T09:16:24;13.50;66.30
68719;DHT22;55696;52.138;5.444;2022-12-29T09:18:51;13.50;66.90
68719;DHT22;55696;52.138;5.444;2022-12-29T09:21:18;13.80;66.10
68719;DHT22;55696;52.138;5.444;2022-12-29T09:23:45;13.60;66.00
68719;DHT22;55696;52.138;5.444;2022-12-29T09:26:12;13.60;65.90
68719;DHT22;55696;52.138;5.444;2022-12-29T09:28:38;13.60;65.80
68719;DHT22;55696;52.138;5.444;2022-12-29T09:31:06;13.50;65.90
68719;DHT22;55696;52.138;5.444;2022-12-29T09:33:33;13.70;66.70
68719;DHT22;55696;52.138;5.444;2022-12-29T09:36:00;13.50;66.50
68719;DHT22;55696;52.138;5.444;2022-12-29T09:38:28;13.50;66.80
68719;DHT22;55696;52.138;5.444;2022-12-29T09:41:13;13.70;68.00
68719;DHT22;55696;52.138;5.444;2022-12-29T09:44:05;13.30;68.40
68719;DHT22;55696;52.138;5.444;2022-12-29T09:46:42;13.40;69.50
68719;DHT22;55696;52.138;5.444;2022-12-29T09:52:02;13.30;70.40
68719;DHT22;55696;52.138;5.444;2022-12-29T09:54:41;13.10;71.00
68719;DHT22;55696;52.138;5.444;2022-12-29T09:57:21;11.30;68.00
68719;DHT22;55696;52.138;5.444;2022-12-29T09:59:52;13.00;71.30
68719;DHT22;55696;52.138;5.444;2022-12-29T10:05:00;13.10;72.70
68719;DHT22;55696;52.138;5.444;2022-12-29T10:07:49;13.10;70.70
68719;DHT22;55696;52.138;5.444;2022-12-29T10:10:49;13.10;72.10
68719;DHT22;55696;52.138;5.444;2022-12-29T10:13:43;13.10;72.50
68719;DHT22;55696;52.138;5.444;2022-12-29T10:22:22;13.10;72.90
68719;DHT22;55696;52.138;5.444;2022-12-29T10:24:55;13.30;72.50
68719;DHT22;55696;52.138;5.444;2022-12-29T10:27:23;13.20;72.10
68719;DHT22;55696;52.138;5.444;2022-12-29T10:29:55;13.40;71.50
68719;DHT22;55696;52.138;5.444;2022-12-29T10:35:24;13.20;72.70
68719;DHT22;55696;52.138;5.444;2022-12-29T10:38:30;13.30;72.20
68719;DHT22;55696;52.138;5.444;2022-12-29T10:41:18;13.20;72.80
68719;DHT22;55696;52.138;5.444;2022-12-29T10:43:49;13.10;73.40
68719;DHT22;55696;52.138;5.444;2022-12-29T10:46:21;13.40;72.50
68719;DHT22;55696;52.138;5.444;2022-12-29T10:48:49;13.30;72.70
68719;DHT22;55696;52.138;5.444;2022-12-29T10:51:29;13.10;71.00
68719;DHT22;55696;52.138;5.444;2022-12-29T10:56:39;13.70;73.40
68719;DHT22;55696;52.138;5.444;2022-12-29T10:59:13;13.20;73.40
68719;DHT22;55696;52.138;5.444;2022-12-29T11:01:58;13.20;73.00
68719;DHT22;55696;52.138;5.444;2022-12-29T11:07:31;13.30;73.30
68719;DHT22;55696;52.138;5.444;2022-12-29T11:10:19;13.20;72.10
68719;DHT22;55696;52.138;5.444;2022-12-29T11:12:59;13.80;74.10
68719;DHT22;55696;52.138;5.444;2022-12-29T11:15:28;13.30;73.40
68719;DHT22;55696;52.138;5.444;2022-12-29T11:18:04;13.30;71.90
68719;DHT22;55696;52.138;5.444;2022-12-29T11:20:35;13.30;71.50
68719;DHT22;55696;52.138;5.444;2022-12-29T11:23:20;13.30;71.30
68719;DHT22;55696;52.138;5.444;2022-12-29T11:26:06;13.30;72.80
68719;DHT22;55696;52.138;5.444;2022-12-29T11:28:34;13.40;73.70
68719;DHT22;55696;52.138;5.444;2022-12-29T11:31:02;14.20;72.40
68719;DHT22;55696;52.138;5.444;2022-12-29T11:33:31;13.50;72.10
68719;DHT22;55696;52.138;5.444;2022-12-29T11:36:02;13.50;71.90
68719;DHT22;55696;52.138;5.444;2022-12-29T11:38:34;14.50;72.60
68719;DHT22;55696;52.138;5.444;2022-12-29T11:41:02;13.60;72.20
68719;DHT22;55696;52.138;5.444;2022-12-29T11:43:37;13.60;71.30
68719;DHT22;55696;52.138;5.444;2022-12-29T11:46:05;13.50;73.00
68719;DHT22;55696;52.138;5.444;2022-12-29T11:48:42;13.60;71.20
68719;DHT22;55696;52.138;5.444;2022-12-29T11:51:09;13.70;72.50
68719;DHT22;55696;52.138;5.444;2022-12-29T11:53:46;13.40;71.30
68719;DHT22;55696;52.138;5.444;2022-12-29T11:56:16;13.40;72.60
68719;DHT22;55696;52.138;5.444;2022-12-29T11:58:43;13.50;71.50
68719;DHT22;55696;52.138;5.444;2022-12-29T12:01:21;13.50;70.50
68719;DHT22;55696;52.138;5.444;2022-12-29T12:04:01;13.60;69.10
68719;DHT22;55696;52.138;5.444;2022-12-29T12:06:32;13.50;71.40
68719;DHT22;55696;52.138;5.444;2022-12-29T12:09:16;13.50;71.00
68719;DHT22;55696;52.138;5.444;2022-12-29T12:11:45;13.50;71.60
68719;DHT22;55696;52.138;5.444;2022-12-29T12:17:30;13.40;72.20
68719;DHT22;55696;52.138;5.444;2022-12-29T12:20:36;13.40;71.50
68719;DHT22;55696;52.138;5.444;2022-12-29T12:23:30;13.30;72.20
68719;DHT22;55696;52.138;5.444;2022-12-29T12:26:14;13.20;73.10
68719;DHT22;55696;52.138;5.444;2022-12-29T12:28:52;13.20;73.00
68719;DHT22;55696;52.138;5.444;2022-12-29T12:34:06;13.20;71.10
68719;DHT22;55696;52.138;5.444;2022-12-29T12:45:16;13.30;71.00
68719;DHT22;55696;52.138;5.444;2022-12-29T12:53:26;13.40;72.50
68719;DHT22;55696;52.138;5.444;2022-12-29T13:01:36;13.70;72.10
68719;DHT22;55696;52.138;5.444;2022-12-29T13:04:30;13.60;72.20
68719;DHT22;55696;52.138;5.444;2022-12-29T13:12:42;13.70;70.60
68719;DHT22;55696;52.138;5.444;2022-12-29T13:21:15;13.80;70.80
68719;DHT22;55696;52.138;5.444;2022-12-29T13:23:54;13.70;70.50
68719;DHT22;55696;52.138;5.444;2022-12-29T13:26:39;13.80;68.10
68719;DHT22;55696;52.138;5.444;2022-12-29T13:29:30;13.80;70.30
68719;DHT22;55696;52.138;5.444;2022-12-29T13:38:12;13.70;70.50
68719;DHT22;55696;52.138;5.444;2022-12-29T13:40:43;13.60;69.70
68719;DHT22;55696;52.138;5.444;2022-12-29T13:43:12;13.60;70.20
68719;DHT22;55696;52.138;5.444;2022-12-29T13:45:41;13.50;69.70
68719;DHT22;55696;52.138;5.444;2022-12-29T13:48:22;13.50;69.20
68719;DHT22;55696;52.138;5.444;2022-12-29T13:50:55;13.60;69.60
68719;DHT22;55696;52.138;5.444;2022-12-29T13:56:07;14.10;70.30
68719;DHT22;55696;52.138;5.444;2022-12-29T13:58:52;13.60;69.40
68719;DHT22;55696;52.138;5.444;2022-12-29T14:01:37;13.60;69.60
68719;DHT22;55696;52.138;5.444;2022-12-29T14:04:13;13.60;67.50
68719;DHT22;55696;52.138;5.444;2022-12-29T14:06:40;13.60;69.80
68719;DHT22;55696;52.138;5.444;2022-12-29T14:09:41;13.50;67.90
68719;DHT22;55696;52.138;5.444;2022-12-29T14:17:42;13.50;69.60
68719;DHT22;55696;52.138;5.444;2022-12-29T14:20:20;13.50;68.70
68719;DHT22;55696;52.138;5.444;2022-12-29T14:22:59;14.30;71.80
68719;DHT22;55696;52.138;5.444;2022-12-29T14:28:38;13.30;70.80
68719;DHT22;55696;52.138;5.444;2022-12-29T14:36:34;13.10;71.20
68719;DHT22;55696;52.138;5.444;2022-12-29T14:39:02;13.00;69.00
68719;DHT22;55696;52.138;5.444;2022-12-29T14:41:33;13.10;69.60
68719;DHT22;55696;52.138;5.444;2022-12-29T14:44:16;13.00;70.50
68719;DHT22;55696;52.138;5.444;2022-12-29T14:49:31;13.00;68.90
68719;DHT22;55696;52.138;5.444;2022-12-29T14:52:12;12.80;71.90
68719;DHT22;55696;52.138;5.444;2022-12-29T14:54:45;12.80;72.00
68719;DHT22;55696;52.138;5.444;2022-12-29T14:57:32;12.80;71.60
68719;DHT22;55696;52.138;5.444;2022-12-29T15:02:39;12.80;72.70
68719;DHT22;55696;52.138;5.444;2022-12-29T15:05:24;12.70;72.30
68719;DHT22;55696;52.138;5.444;2022-12-29T15:07:53;12.70;72.90
68719;DHT22;55696;52.138;5.444;2022-12-29T15:10:22;12.70;71.70
68719;DHT22;55696;52.138;5.444;2022-12-29T15:12:53;12.80;72.10
68719;DHT22;55696;52.138;5.444;2022-12-29T15:17:50;12.80;70.70
68719;DHT22;55696;52.138;5.444;2022-12-29T15:20:28;12.70;71.40
68719;DHT22;55696;52.138;5.444;2022-12-29T15:23:00;12.80;72.70
68719;DHT22;55696;52.138;5.444;2022-12-29T15:25:28;12.80;70.80
68719;DHT22;55696;52.138;5.444;2022-12-29T15:28:02;12.70;71.40
68719;DHT22;55696;52.138;5.444;2022-12-29T15:30:30;12.70;73.20
68719;DHT22;55696;52.138;5.444;2022-12-29T15:32:57;12.80;71.40
68719;DHT22;55696;52.138;5.444;2022-12-29T15:35:37;12.90;71.30
68719;DHT22;55696;52.138;5.444;2022-12-29T15:38:15;12.90;73.40
68719;DHT22;55696;52.138;5.444;2022-12-29T15:40:44;12.90;73.10
68719;DHT22;55696;52.138;5.444;2022-12-29T15:45:54;13.00;72.60
68719;DHT22;55696;52.138;5.444;2022-12-29T15:48:23;12.80;71.60
68719;DHT22;55696;52.138;5.444;2022-12-29T15:50:51;12.90;71.80
68719;DHT22;55696;52.138;5.444;2022-12-29T15:53:22;12.90;71.60
68719;DHT22;55696;52.138;5.444;2022-12-29T15:56:13;12.90;72.40
68719;DHT22;55696;52.138;5.444;2022-12-29T15:58:45;12.80;72.90
68719;DHT22;55696;52.138;5.444;2022-12-29T16:01:24;13.00;71.50
68719;DHT22;55696;52.138;5.444;2022-12-29T16:03:53;12.90;72.70
68719;DHT22;55696;52.138;5.444;2022-12-29T16:06:36;12.80;70.80
68719;DHT22;55696;52.138;5.444;2022-12-29T16:09:15;13.00;71.50
68719;DHT22;55696;52.138;5.444;2022-12-29T16:11:46;13.00;70.90
68719;DHT22;55696;52.138;5.444;2022-12-29T16:14:19;12.90;71.30
68719;DHT22;55696;52.138;5.444;2022-12-29T16:16:47;12.80;71.50
68719;DHT22;55696;52.138;5.444;2022-12-29T16:19:28;12.90;70.90
68719;DHT22;55696;52.138;5.444;2022-12-29T16:21:57;12.90;71.20
68719;DHT22;55696;52.138;5.444;2022-12-29T16:24:26;12.70;71.20
68719;DHT22;55696;52.138;5.444;2022-12-29T16:29:32;12.90;72.10
68719;DHT22;55696;52.138;5.444;2022-12-29T16:32:00;12.90;70.10
68719;DHT22;55696;52.138;5.444;2022-12-29T16:34:42;12.80;70.00
68719;DHT22;55696;52.138;5.444;2022-12-29T16:37:31;12.90;71.10
68719;DHT22;55696;52.138;5.444;2022-12-29T16:50:42;12.70;70.60
68719;DHT22;55696;52.138;5.444;2022-12-29T16:53:24;12.60;69.70
68719;DHT22;55696;52.138;5.444;2022-12-29T16:55:53;12.60;70.20
68719;DHT22;55696;52.138;5.444;2022-12-29T16:58:25;12.50;69.50
68719;DHT22;55696;52.138;5.444;2022-12-29T17:00:55;12.50;69.50
68719;DHT22;55696;52.138;5.444;2022-12-29T17:03:33;12.40;69.70
68719;DHT22;55696;52.138;5.444;2022-12-29T17:06:01;12.40;69.60
68719;DHT22;55696;52.138;5.444;2022-12-29T17:08:28;12.30;68.70
68719;DHT22;55696;52.138;5.444;2022-12-29T17:10:56;12.20;68.80
68719;DHT22;55696;52.138;5.444;2022-12-29T17:13:42;12.10;70.50
68719;DHT22;55696;52.138;5.444;2022-12-29T17:16:10;12.10;69.00
68719;DHT22;55696;52.138;5.444;2022-12-29T17:18:37;12.10;69.70
68719;DHT22;55696;52.138;5.444;2022-12-29T17:21:04;12.20;69.20
68719;DHT22;55696;52.138;5.444;2022-12-29T17:23:32;12.20;68.80
68719;DHT22;55696;52.138;5.444;2022-12-29T17:26:00;12.10;70.00
68719;DHT22;55696;52.138;5.444;2022-12-29T17:28:30;12.10;69.30
68719;DHT22;55696;52.138;5.444;2022-12-29T17:31:03;12.10;70.40
68719;DHT22;55696;52.138;5.444;2022-12-29T17:33:37;12.10;70.60
68719;DHT22;55696;52.138;5.444;2022-12-29T17:36:04;12.00;70.60
68719;DHT22;55696;52.138;5.444;2022-12-29T17:38:34;12.10;68.80
68719;DHT22;55696;52.138;5.444;2022-12-29T17:41:01;12.00;70.20
68719;DHT22;55696;52.138;5.444;2022-12-29T17:43:28;12.00;68.60
68719;DHT22;55696;52.138;5.444;2022-12-29T17:46:05;11.90;68.80
68719;DHT22;55696;52.138;5.444;2022-12-29T17:48:32;12.00;70.90
68719;DHT22;55696;52.138;5.444;2022-12-29T17:50:59;12.00;68.90
68719;DHT22;55696;52.138;5.444;2022-12-29T17:53:28;11.90;68.90
68719;DHT22;55696;52.138;5.444;2022-12-29T17:55:56;11.80;70.10
68719;DHT22;55696;52.138;5.444;2022-12-29T17:58:27;12.00;69.00
68719;DHT22;55696;52.138;5.444;2022-12-29T18:00:57;11.80;70.70
68719;DHT22;55696;52.138;5.444;2022-12-29T18:03:30;11.90;70.20
68719;DHT22;55696;52.138;5.444;2022-12-29T18:05:58;11.90;70.70
68719;DHT22;55696;52.138;5.444;2022-12-29T18:08:26;11.90;68.40
68719;DHT22;55696;52.138;5.444;2022-12-29T18:10:55;11.90;68.80
68719;DHT22;55696;52.138;5.444;2022-12-29T18:13:23;11.80;68.60
68719;DHT22;55696;52.138;5.444;2022-12-29T18:15:52;11.80;68.20
68719;DHT22;55696;52.138;5.444;2022-12-29T18:18:22;11.80;68.10
68719;DHT22;55696;52.138;5.444;2022-12-29T18:20:51;11.70;69.20